UGKO/KIU METAR and TAF weather

Enter ICAO airport designator
Station Type Date Time Source
UGKO METAR 2022/11/30 17:00 UTC NOAA

UGKO 301700Z 08023G37KT CAVOK 13/04 Q1019 NOSIG


Station Type Date Time Source
UGKO Decoded METAR 2022/11/30 17:00 UTC NOAA

Station name not available
Nov 30, 2022 - 12:00 PM EST / 2022.11.30 1700 UTC
Wind: from the E (080 degrees) at 26 MPH (23 KT) gusting to 43 MPH (37 KT):0
Visibility: greater than 7 mile(s):0
Temperature: 55 F (13 C)
Dew Point: 39 F (4 C)
Relative Humidity: 54%
Pressure (altimeter): 30.09 in. Hg (1019 hPa)
ob: UGKO 301700Z 08023G37KT CAVOK 13/04 Q1019 NOSIG
cycle: 17

Station Type Date Time Source
UGKO TAF 2022/11/30 18:06 UTC NOAA

TAF UGKO 301700Z 3018/0118 08025G39KT CAVOK TX14/0111Z TN11/0103Z
TEMPO 3020/0104 08017G33KT

Example: see airport list